createdAt,value
2022-10-09T00:01:30.095Z,7.41
2022-10-09T00:04:00.051Z,7.36
2022-10-09T00:06:30.847Z,7.42
2022-10-09T00:09:01.930Z,7.27
2022-10-09T00:11:32.130Z,7.23
2022-10-09T00:14:00.432Z,7.22
2022-10-09T00:16:30.067Z,7.20
2022-10-09T00:18:58.763Z,7.26
2022-10-09T00:21:29.278Z,7.18
2022-10-09T00:24:00.233Z,7.17
2022-10-09T00:26:30.518Z,7.22
2022-10-09T00:28:59.319Z,7.17
2022-10-09T00:31:27.853Z,7.05
2022-10-09T00:33:56.458Z,7.09
2022-10-09T00:36:26.893Z,6.96
2022-10-09T00:38:55.889Z,6.96
2022-10-09T00:41:27.091Z,6.95
2022-10-09T00:43:58.681Z,6.94
2022-10-09T00:46:34.347Z,6.90
2022-10-09T00:49:10.444Z,6.82
2022-10-09T00:51:39.532Z,6.76
2022-10-09T00:54:12.898Z,6.76
2022-10-09T00:56:41.553Z,6.79
2022-10-09T00:59:12.129Z,6.81
2022-10-09T01:01:41.675Z,6.73
2022-10-09T01:04:12.565Z,6.64
2022-10-09T01:06:59.484Z,6.64
2022-10-09T01:09:39.267Z,6.69
2022-10-09T01:12:17.330Z,6.70
2022-10-09T01:14:56.555Z,6.71
2022-10-09T01:17:31.862Z,6.64
2022-10-09T01:20:32.582Z,6.68
2022-10-09T01:23:23.773Z,6.62
2022-10-09T01:26:04.365Z,6.63
2022-10-09T01:28:36.736Z,6.60
2022-10-09T01:31:07.409Z,6.53
2022-10-09T01:33:36.498Z,6.51
2022-10-09T01:36:07.360Z,6.43
2022-10-09T01:38:37.601Z,6.47
2022-10-09T01:41:08.154Z,6.47
2022-10-09T01:43:37.956Z,6.47
2022-10-09T01:46:20.681Z,6.43
2022-10-09T01:48:56.427Z,6.38
2022-10-09T01:51:31.049Z,6.38
2022-10-09T01:54:06.449Z,6.32
2022-10-09T01:56:38.812Z,6.26
2022-10-09T01:59:16.043Z,6.23
2022-10-09T02:01:47.006Z,6.22
2022-10-09T02:04:17.924Z,6.19
2022-10-09T02:06:47.764Z,6.14
2022-10-09T02:09:18.992Z,6.11
2022-10-09T02:11:53.567Z,6.05
2022-10-09T02:14:25.417Z,6.05
2022-10-09T02:17:02.619Z,6.01
2022-10-09T02:19:35.881Z,5.98
2022-10-09T02:22:09.136Z,5.97
2022-10-09T02:24:38.917Z,6.02
2022-10-09T02:27:08.793Z,5.97
2022-10-09T02:29:39.716Z,5.94
2022-10-09T02:32:08.587Z,5.93
2022-10-09T02:34:37.174Z,5.89
2022-10-09T02:37:06.118Z,5.77
2022-10-09T02:39:34.781Z,5.83
2022-10-09T02:42:03.412Z,5.84
2022-10-09T02:44:31.828Z,5.81
2022-10-09T02:47:01.566Z,5.78
2022-10-09T02:49:30.008Z,5.78
2022-10-09T02:51:58.361Z,5.73
2022-10-09T02:54:26.745Z,5.71
2022-10-09T02:56:55.116Z,5.71
2022-10-09T02:59:23.512Z,5.72
2022-10-09T03:01:52.155Z,5.68
2022-10-09T03:04:22.071Z,5.65
2022-10-09T03:06:50.481Z,5.58
2022-10-09T03:09:18.855Z,5.58
2022-10-09T03:11:47.247Z,5.57
2022-10-09T03:14:15.733Z,5.50
2022-10-09T03:16:44.179Z,5.51
2022-10-09T03:19:12.602Z,5.54
2022-10-09T03:21:42.352Z,5.55
2022-10-09T03:24:11.038Z,5.53
2022-10-09T03:26:39.479Z,5.53
2022-10-09T03:29:07.846Z,5.50
2022-10-09T03:31:53.101Z,5.46
2022-10-09T03:34:22.055Z,5.44
2022-10-09T03:36:51.812Z,5.40
2022-10-09T03:39:20.188Z,5.40
2022-10-09T03:41:48.588Z,5.34
2022-10-09T03:44:16.957Z,5.23
2022-10-09T03:46:46.578Z,5.26
2022-10-09T03:49:15.278Z,5.20
2022-10-09T03:51:43.665Z,5.15
2022-10-09T03:54:13.397Z,5.15
2022-10-09T03:56:41.779Z,5.11
2022-10-09T03:59:11.223Z,5.04
2022-10-09T04:01:39.647Z,4.96
2022-10-09T04:04:08.033Z,4.97
2022-10-09T04:06:36.484Z,4.88
2022-10-09T04:09:04.998Z,4.89
2022-10-09T04:11:35.134Z,4.86
2022-10-09T04:14:03.511Z,4.78
2022-10-09T04:16:31.931Z,4.78
2022-10-09T04:19:00.359Z,4.75
2022-10-09T04:21:28.821Z,4.81
2022-10-09T04:23:57.209Z,4.80
2022-10-09T04:26:25.566Z,4.77
2022-10-09T04:28:55.319Z,4.70
2022-10-09T04:31:23.734Z,4.68
2022-10-09T04:33:52.157Z,4.70
2022-10-09T04:36:20.549Z,4.69
2022-10-09T04:38:48.922Z,4.68
2022-10-09T04:41:17.332Z,4.65
2022-10-09T04:43:45.738Z,4.66
2022-10-09T04:46:16.269Z,4.70
2022-10-09T04:48:46.497Z,4.64
2022-10-09T04:51:15.353Z,4.64
2022-10-09T04:53:44.000Z,4.66
2022-10-09T04:56:18.167Z,4.64
2022-10-09T04:58:48.133Z,4.62
2022-10-09T05:01:20.247Z,4.61
2022-10-09T05:03:49.186Z,4.58
2022-10-09T05:06:19.281Z,4.60
2022-10-09T05:08:47.842Z,4.60
2022-10-09T05:11:18.765Z,4.61
2022-10-09T05:13:49.381Z,4.60
2022-10-09T05:16:21.607Z,4.60
2022-10-09T05:18:52.969Z,4.57
2022-10-09T05:21:22.385Z,4.60
2022-10-09T05:23:51.027Z,4.57
2022-10-09T05:26:22.166Z,4.56
2022-10-09T05:28:51.245Z,4.59
2022-10-09T05:31:22.858Z,4.48
2022-10-09T05:33:51.853Z,4.52
2022-10-09T05:36:21.076Z,4.50
2022-10-09T05:38:49.942Z,4.48
2022-10-09T05:41:19.998Z,4.49
2022-10-09T05:43:50.231Z,4.49
2022-10-09T05:46:19.463Z,4.48
2022-10-09T05:48:55.205Z,4.48
2022-10-09T05:51:25.494Z,4.40
2022-10-09T05:53:54.453Z,4.32
2022-10-09T05:56:25.074Z,4.34
2022-10-09T05:58:55.230Z,4.42
2022-10-09T06:01:24.455Z,4.38
2022-10-09T06:03:55.675Z,4.39
2022-10-09T06:06:25.950Z,4.41
2022-10-09T06:08:54.804Z,4.40
2022-10-09T06:11:28.176Z,4.43
2022-10-09T06:13:57.234Z,4.48
2022-10-09T06:16:27.411Z,4.48
2022-10-09T06:18:57.581Z,4.54
2022-10-09T06:21:28.204Z,4.51
2022-10-09T06:24:00.014Z,4.55
2022-10-09T06:26:30.175Z,4.50
2022-10-09T06:28:58.799Z,4.51
2022-10-09T06:31:29.178Z,4.56
2022-10-09T06:34:00.442Z,4.61
2022-10-09T06:36:30.436Z,4.64
2022-10-09T06:39:00.203Z,4.73
2022-10-09T06:41:29.905Z,4.76
2022-10-09T06:44:00.160Z,4.84
2022-10-09T06:46:32.131Z,4.94
2022-10-09T06:49:03.094Z,5.02
2022-10-09T06:51:32.421Z,5.09
2022-10-09T06:54:02.770Z,5.15
2022-10-09T06:56:33.137Z,5.24
2022-10-09T06:59:02.556Z,5.38
2022-10-09T07:01:32.838Z,5.56
2022-10-09T07:04:04.273Z,5.95
2022-10-09T07:06:34.568Z,6.16
2022-10-09T07:09:05.870Z,6.57
2022-10-09T07:11:35.980Z,7.00
2022-10-09T07:14:05.615Z,7.31
2022-10-09T07:16:36.326Z,7.79
2022-10-09T07:19:07.432Z,8.15
2022-10-09T07:21:36.854Z,8.38
2022-10-09T07:24:06.459Z,8.72
2022-10-09T07:26:38.258Z,8.94
2022-10-09T07:29:08.100Z,9.25
2022-10-09T07:31:36.673Z,9.48
2022-10-09T07:34:07.025Z,9.71
2022-10-09T07:36:35.525Z,9.91
2022-10-09T07:39:05.316Z,10.11
2022-10-09T07:41:33.800Z,10.35
2022-10-09T07:44:02.561Z,10.59
2022-10-09T07:46:33.680Z,10.67
2022-10-09T07:49:03.149Z,10.87
2022-10-09T07:51:33.718Z,10.98
2022-10-09T07:54:02.765Z,11.20
2022-10-09T07:56:32.756Z,11.20
2022-10-09T07:59:03.678Z,11.51
2022-10-09T08:01:34.079Z,11.61
2022-10-09T08:04:03.413Z,11.58
2022-10-09T08:06:34.059Z,11.75
2022-10-09T08:09:05.043Z,11.74
2022-10-09T08:11:34.476Z,12.04
2022-10-09T08:14:03.078Z,12.16
2022-10-09T08:16:33.117Z,12.36
2022-10-09T08:19:02.645Z,12.37
2022-10-09T08:21:32.869Z,12.80
2022-10-09T08:24:02.782Z,12.77
2022-10-09T08:26:31.820Z,12.72
2022-10-09T08:29:01.730Z,13.11
2022-10-09T08:31:31.739Z,13.41
2022-10-09T08:34:02.781Z,13.72
2022-10-09T08:36:32.034Z,13.67
2022-10-09T08:39:02.182Z,13.78
2022-10-09T08:41:42.479Z,13.95
2022-10-09T08:44:16.278Z,14.10
2022-10-09T08:47:01.479Z,14.14
2022-10-09T08:49:37.777Z,14.20
2022-10-09T08:52:18.588Z,14.34
2022-10-09T08:54:48.743Z,14.45
2022-10-09T08:57:18.657Z,14.60
2022-10-09T08:59:47.090Z,14.56
2022-10-09T09:02:44.501Z,15.02
2022-10-09T09:05:29.285Z,14.99
2022-10-09T09:08:08.077Z,15.25
2022-10-09T09:10:43.554Z,15.42
2022-10-09T09:13:36.141Z,15.55
2022-10-09T09:16:13.142Z,15.64
2022-10-09T09:18:53.082Z,15.80
2022-10-09T09:21:33.786Z,16.06
2022-10-09T09:24:06.282Z,16.16
2022-10-09T09:26:39.863Z,16.23
2022-10-09T09:29:08.433Z,16.58
2022-10-09T09:31:39.016Z,16.50
2022-10-09T09:34:13.901Z,16.59
2022-10-09T09:36:48.194Z,16.75
2022-10-09T09:42:15.215Z,16.84
2022-10-09T09:44:50.640Z,17.15
2022-10-09T09:47:25.042Z,17.04
2022-10-09T09:49:54.673Z,17.14
2022-10-09T09:52:23.335Z,16.93
2022-10-09T09:54:52.046Z,17.30
2022-10-09T09:57:30.600Z,17.64
2022-10-09T10:00:09.101Z,17.68
2022-10-09T10:02:38.502Z,17.90
2022-10-09T10:05:17.820Z,18.21
2022-10-09T10:07:49.912Z,18.08
2022-10-09T10:10:25.373Z,17.72
2022-10-09T10:12:58.354Z,17.47
2022-10-09T10:15:28.554Z,17.45
2022-10-09T10:18:01.726Z,17.59
2022-10-09T10:20:32.184Z,17.67
2022-10-09T10:23:01.629Z,17.88
2022-10-09T10:25:33.814Z,18.29
2022-10-09T10:28:09.415Z,18.97
2022-10-09T10:30:39.121Z,18.44
2022-10-09T10:33:17.889Z,18.50
2022-10-09T10:35:50.265Z,18.59
2022-10-09T10:38:23.829Z,18.61
2022-10-09T10:40:58.029Z,18.62
2022-10-09T10:43:37.079Z,18.49
2022-10-09T10:46:18.379Z,18.84
2022-10-09T10:48:50.019Z,18.35
2022-10-09T10:51:39.974Z,18.38
2022-10-09T10:54:27.772Z,17.66
2022-10-09T10:57:03.073Z,18.33
2022-10-09T10:59:40.453Z,18.35
2022-10-09T11:02:40.942Z,18.32
2022-10-09T11:05:23.983Z,18.12
2022-10-09T11:08:04.500Z,18.36
2022-10-09T11:10:38.011Z,18.10
2022-10-09T11:13:16.107Z,17.80
2022-10-09T11:15:57.721Z,18.23
2022-10-09T11:18:37.622Z,17.94
2022-10-09T11:21:21.446Z,17.86
2022-10-09T11:24:05.323Z,18.28
2022-10-09T11:26:42.983Z,18.78
2022-10-09T11:29:17.942Z,18.83
2022-10-09T11:31:51.540Z,18.59
2022-10-09T11:34:23.717Z,18.89
2022-10-09T11:36:52.161Z,18.76
2022-10-09T11:39:23.530Z,18.72
2022-10-09T11:41:54.357Z,18.79
2022-10-09T11:44:36.684Z,18.87
2022-10-09T11:47:16.271Z,18.56
2022-10-09T11:49:59.407Z,18.37
2022-10-09T11:52:39.128Z,18.66
2022-10-09T11:55:19.584Z,18.93
2022-10-09T11:57:48.907Z,19.19
2022-10-09T12:00:28.980Z,18.68
2022-10-09T12:03:02.165Z,18.53
2022-10-09T12:05:39.970Z,18.56
2022-10-09T12:08:15.391Z,18.04
2022-10-09T12:10:53.844Z,18.01
2022-10-09T12:13:40.958Z,18.04
2022-10-09T12:16:29.177Z,18.34
2022-10-09T12:19:00.817Z,18.66
2022-10-09T12:21:33.643Z,18.52
2022-10-09T12:24:02.507Z,18.36
2022-10-09T12:26:31.841Z,18.61
2022-10-09T12:29:04.796Z,18.56
2022-10-09T12:31:37.278Z,18.63
2022-10-09T12:34:18.688Z,18.70
2022-10-09T12:36:47.427Z,18.63
2022-10-09T12:39:20.128Z,18.89
2022-10-09T12:41:53.138Z,19.16
2022-10-09T12:44:29.533Z,18.86
2022-10-09T12:47:02.654Z,18.88
2022-10-09T12:49:32.673Z,18.40
2022-10-09T12:52:02.029Z,18.52
2022-10-09T12:54:32.281Z,18.78
2022-10-09T12:57:01.765Z,18.11
2022-10-09T12:59:30.748Z,17.99
2022-10-09T13:02:00.917Z,17.82
2022-10-09T13:04:33.189Z,17.82
2022-10-09T13:07:07.744Z,17.65
2022-10-09T13:09:38.737Z,17.83
2022-10-09T13:12:10.837Z,17.27
2022-10-09T13:14:43.961Z,17.26
2022-10-09T13:17:24.946Z,17.31
2022-10-09T13:19:56.861Z,17.54
2022-10-09T13:22:26.839Z,17.62
2022-10-09T13:24:57.498Z,17.32
2022-10-09T13:27:28.254Z,17.35
2022-10-09T13:29:57.450Z,17.12
2022-10-09T13:32:26.387Z,17.02
2022-10-09T13:34:57.964Z,17.02
2022-10-09T13:37:27.895Z,17.13
2022-10-09T13:39:58.170Z,17.16
2022-10-09T13:42:29.401Z,16.91
2022-10-09T13:44:58.091Z,16.94
2022-10-09T13:47:26.544Z,17.00
2022-10-09T13:49:57.523Z,16.99
2022-10-09T13:52:26.223Z,16.88
2022-10-09T13:54:54.677Z,16.99
2022-10-09T13:57:23.093Z,16.87
2022-10-09T13:59:51.583Z,17.22
2022-10-09T14:02:20.301Z,17.34
2022-10-09T14:04:48.763Z,17.14
2022-10-09T14:07:19.080Z,17.00
2022-10-09T14:09:47.681Z,17.00
2022-10-09T14:12:16.109Z,16.92
2022-10-09T14:14:44.546Z,17.02
2022-10-09T14:17:13.022Z,16.90
2022-10-09T14:19:41.517Z,16.80
2022-10-09T14:22:09.971Z,16.76
2022-10-09T14:24:39.795Z,16.62
2022-10-09T14:27:08.370Z,16.67
2022-10-09T14:29:38.103Z,16.63
2022-10-09T14:32:06.824Z,16.45
2022-10-09T14:34:35.345Z,16.37
2022-10-09T14:37:13.579Z,16.29
2022-10-09T14:39:48.928Z,16.29
2022-10-09T14:42:17.453Z,16.25
2022-10-09T14:44:45.888Z,16.17
2022-10-09T14:47:14.349Z,16.33
2022-10-09T14:49:42.787Z,16.32
2022-10-09T14:52:11.408Z,16.27
2022-10-09T14:54:39.989Z,16.35
2022-10-09T14:57:09.890Z,16.36
2022-10-09T14:59:38.362Z,16.38
2022-10-09T15:02:07.573Z,16.39
2022-10-09T15:04:36.231Z,16.19
2022-10-09T15:07:04.682Z,16.00
2022-10-09T15:09:33.130Z,16.12
2022-10-09T15:12:01.589Z,16.02
2022-10-09T15:14:31.392Z,16.10
2022-10-09T15:17:00.090Z,16.03
2022-10-09T15:19:28.715Z,15.89
2022-10-09T15:21:57.393Z,15.73
2022-10-09T15:24:25.907Z,15.59
2022-10-09T15:26:54.402Z,15.60
2022-10-09T15:29:23.275Z,15.42
2022-10-09T15:31:53.160Z,15.49
2022-10-09T15:34:21.734Z,15.43
2022-10-09T15:36:51.035Z,15.33
2022-10-09T15:39:19.741Z,15.37
2022-10-09T15:41:48.238Z,15.25
2022-10-09T15:44:18.717Z,15.20
2022-10-09T15:46:49.035Z,15.12
2022-10-09T15:49:19.054Z,14.94
2022-10-09T15:51:47.533Z,15.20
2022-10-09T15:54:15.948Z,15.15
2022-10-09T15:56:44.413Z,14.96
2022-10-09T15:59:14.230Z,14.92
2022-10-09T16:01:42.698Z,15.00
2022-10-09T16:04:11.257Z,14.99
2022-10-09T16:06:41.169Z,14.88
2022-10-09T16:09:09.777Z,14.88
2022-10-09T16:11:38.318Z,14.76
2022-10-09T16:14:06.763Z,14.74
2022-10-09T16:16:35.381Z,14.66
2022-10-09T16:19:05.054Z,14.66
2022-10-09T16:21:33.472Z,14.65
2022-10-09T16:24:03.292Z,14.60
2022-10-09T16:26:31.886Z,14.57
2022-10-09T16:29:01.378Z,14.34
2022-10-09T16:31:31.766Z,14.30
2022-10-09T16:34:00.226Z,14.19
2022-10-09T16:36:29.707Z,14.14
2022-10-09T16:38:58.937Z,14.12
2022-10-09T16:41:28.845Z,14.02
2022-10-09T16:44:00.108Z,13.96
2022-10-09T16:46:31.508Z,13.91
2022-10-09T16:49:02.598Z,13.85
2022-10-09T16:51:33.253Z,13.77
2022-10-09T16:54:03.563Z,13.69
2022-10-09T16:56:37.789Z,13.64
2022-10-09T16:59:09.451Z,13.53
2022-10-09T17:01:42.308Z,13.45
2022-10-09T17:04:11.009Z,13.39
2022-10-09T17:06:41.201Z,13.27
2022-10-09T17:09:14.009Z,13.20
2022-10-09T17:11:45.146Z,13.10
2022-10-09T17:14:14.262Z,13.08
2022-10-09T17:16:43.723Z,12.97
2022-10-09T17:19:12.265Z,12.89
2022-10-09T17:21:41.426Z,12.87
2022-10-09T17:24:10.046Z,12.82
2022-10-09T17:26:39.801Z,12.68
2022-10-09T17:29:09.916Z,12.61
2022-10-09T17:31:38.378Z,12.61
2022-10-09T17:34:07.381Z,12.60
2022-10-09T17:36:38.071Z,12.54
2022-10-09T17:39:08.718Z,12.43
2022-10-09T17:41:37.298Z,12.44
2022-10-09T17:44:05.998Z,12.43
2022-10-09T17:46:35.797Z,12.36
2022-10-09T17:49:04.058Z,12.34
2022-10-09T17:51:34.813Z,12.30
2022-10-09T17:54:08.194Z,12.13
2022-10-09T17:56:39.844Z,12.09
2022-10-09T17:59:08.666Z,12.05
2022-10-09T18:01:38.734Z,11.99
2022-10-09T18:04:07.432Z,11.83
2022-10-09T18:06:36.181Z,11.78
2022-10-09T18:09:05.844Z,11.77
2022-10-09T18:11:34.292Z,11.73
2022-10-09T18:14:03.790Z,11.63
2022-10-09T18:16:37.734Z,11.62
2022-10-09T18:19:11.320Z,11.60
2022-10-09T18:21:41.661Z,11.63
2022-10-09T18:24:10.811Z,11.58
2022-10-09T18:26:39.673Z,11.49
2022-10-09T18:29:08.176Z,11.45
2022-10-09T18:31:37.696Z,11.43
2022-10-09T18:34:07.698Z,11.34
2022-10-09T18:36:36.310Z,11.28
2022-10-09T18:39:07.460Z,11.32
2022-10-09T18:41:37.721Z,11.24
2022-10-09T18:44:09.620Z,11.19
2022-10-09T18:46:42.254Z,11.28
2022-10-09T18:49:16.734Z,11.35
2022-10-09T18:51:46.587Z,11.36
2022-10-09T18:54:18.286Z,11.28
2022-10-09T18:56:47.502Z,11.28
2022-10-09T18:59:19.287Z,11.31
2022-10-09T19:01:47.929Z,11.31
2022-10-09T19:04:18.927Z,11.27
2022-10-09T19:06:47.472Z,11.21
2022-10-09T19:09:17.017Z,11.20
2022-10-09T19:11:45.591Z,11.14
2022-10-09T19:14:15.708Z,11.14
2022-10-09T19:16:44.114Z,11.15
2022-10-09T19:19:12.609Z,11.13
2022-10-09T19:21:43.943Z,11.06
2022-10-09T19:24:13.619Z,11.03
2022-10-09T19:26:42.337Z,11.03
2022-10-09T19:29:10.917Z,11.05
2022-10-09T19:31:39.469Z,11.13
2022-10-09T19:34:08.496Z,11.02
2022-10-09T19:36:37.577Z,11.00
2022-10-09T19:39:09.075Z,11.06
2022-10-09T19:41:38.928Z,11.01
2022-10-09T19:44:07.169Z,11.05
2022-10-09T19:46:37.923Z,10.97
2022-10-09T19:49:08.360Z,11.04
2022-10-09T19:51:37.502Z,11.14
2022-10-09T19:54:09.498Z,11.15
2022-10-09T19:56:39.131Z,11.18
2022-10-09T19:59:09.158Z,11.15
2022-10-09T20:01:39.924Z,11.15
2022-10-09T20:04:11.458Z,11.10
2022-10-09T20:06:43.611Z,11.11
2022-10-09T20:09:20.676Z,11.18
2022-10-09T20:11:49.551Z,11.17
2022-10-09T20:14:18.081Z,11.18
2022-10-09T20:16:46.550Z,11.19
2022-10-09T20:19:14.942Z,11.20
2022-10-09T20:21:43.329Z,11.21
2022-10-09T20:24:11.769Z,11.14
2022-10-09T20:26:43.282Z,11.13
2022-10-09T20:29:12.037Z,11.10
2022-10-09T20:31:40.773Z,11.13
2022-10-09T20:34:09.356Z,11.11
2022-10-09T20:36:39.054Z,11.00
2022-10-09T20:39:08.911Z,10.98
2022-10-09T20:41:38.444Z,10.94
2022-10-09T20:44:08.721Z,10.93
2022-10-09T20:46:38.982Z,10.97
2022-10-09T20:49:09.572Z,10.94
2022-10-09T20:51:38.420Z,10.92
2022-10-09T20:54:08.714Z,10.90
2022-10-09T20:56:37.627Z,10.91
2022-10-09T20:59:06.057Z,10.90
2022-10-09T21:01:36.853Z,10.90
2022-10-09T21:04:05.785Z,10.88
2022-10-09T21:06:36.014Z,10.85
2022-10-09T21:09:05.238Z,10.89
2022-10-09T21:11:34.791Z,10.89
2022-10-09T21:14:04.228Z,10.81
2022-10-09T21:16:32.687Z,10.74
2022-10-09T21:19:04.928Z,10.72
2022-10-09T21:21:34.045Z,10.68
2022-10-09T21:24:03.229Z,10.71
2022-10-09T21:26:35.442Z,10.68
2022-10-09T21:29:05.165Z,10.59
2022-10-09T21:31:34.728Z,10.57
2022-10-09T21:34:04.791Z,10.49
2022-10-09T21:36:56.256Z,10.34
2022-10-09T21:39:30.266Z,10.32
2022-10-09T21:41:59.217Z,10.15
2022-10-09T21:44:27.750Z,10.16
2022-10-09T21:46:56.244Z,10.11
2022-10-09T21:49:28.264Z,9.98
2022-10-09T21:51:57.203Z,9.88
2022-10-09T21:54:25.605Z,9.81
2022-10-09T21:56:54.013Z,9.85
2022-10-09T21:59:22.412Z,9.76
2022-10-09T22:01:50.868Z,9.78
2022-10-09T22:04:19.313Z,9.73
2022-10-09T22:06:49.102Z,9.59
2022-10-09T22:09:17.531Z,9.65
2022-10-09T22:11:45.978Z,9.63
2022-10-09T22:14:15.012Z,9.59
2022-10-09T22:16:43.470Z,9.59
2022-10-09T22:19:11.951Z,9.42
2022-10-09T22:21:40.396Z,9.51
2022-10-09T22:24:10.240Z,9.50
2022-10-09T22:26:38.692Z,9.51
2022-10-09T22:29:07.437Z,9.48
2022-10-09T22:31:35.834Z,9.45
2022-10-09T22:34:04.284Z,9.43
2022-10-09T22:36:34.561Z,9.40
2022-10-09T22:39:06.665Z,9.42
2022-10-09T22:41:36.832Z,9.41
2022-10-09T22:44:06.764Z,9.42
2022-10-09T22:46:36.349Z,9.33
2022-10-09T22:49:05.749Z,9.32
2022-10-09T22:51:34.356Z,9.25
2022-10-09T22:54:02.951Z,9.26
2022-10-09T22:56:32.820Z,9.21
2022-10-09T22:59:03.138Z,9.09
2022-10-09T23:01:35.604Z,9.12
2022-10-09T23:04:06.038Z,9.18
2022-10-09T23:06:35.119Z,9.12
2022-10-09T23:09:06.154Z,9.08
2022-10-09T23:11:35.116Z,9.06
2022-10-09T23:14:05.867Z,8.98
2022-10-09T23:16:34.613Z,9.01
2022-10-09T23:19:06.729Z,8.86
2022-10-09T23:21:37.346Z,8.96
2022-10-09T23:24:06.743Z,8.95
2022-10-09T23:26:36.857Z,8.93
2022-10-09T23:29:15.119Z,8.92
2022-10-09T23:31:43.769Z,8.82
2022-10-09T23:34:12.276Z,8.88
2022-10-09T23:36:41.113Z,8.85
2022-10-09T23:39:09.964Z,8.78
2022-10-09T23:41:39.054Z,8.80
2022-10-09T23:44:08.898Z,8.85
2022-10-09T23:46:38.296Z,8.91
2022-10-09T23:49:06.892Z,8.94
2022-10-09T23:51:35.293Z,8.94
2022-10-09T23:54:03.743Z,8.95
2022-10-09T23:56:33.943Z,8.98
2022-10-09T23:59:05.989Z,9.00
